createdAt,value
2023-03-26T00:01:20.632Z,1.33
2023-03-26T00:03:53.209Z,1.30
2023-03-26T00:06:22.609Z,1.40
2023-03-26T00:08:50.462Z,1.80
2023-03-26T00:11:19.454Z,1.33
2023-03-26T00:13:47.018Z,1.43
2023-03-26T00:16:15.697Z,1.43
2023-03-26T00:18:43.814Z,1.03
2023-03-26T00:21:14.286Z,1.37
2023-03-26T00:23:42.401Z,1.73
2023-03-26T00:26:10.687Z,1.40
2023-03-26T00:28:39.639Z,1.40
2023-03-26T00:31:17.464Z,1.40
2023-03-26T00:33:45.133Z,1.20
2023-03-26T00:36:16.775Z,1.23
2023-03-26T00:38:46.185Z,1.53
2023-03-26T00:41:22.243Z,1.60
2023-03-26T00:43:51.335Z,2.30
2023-03-26T00:46:19.182Z,1.40
2023-03-26T00:48:46.842Z,1.77
2023-03-26T00:51:16.468Z,1.30
2023-03-26T00:53:45.308Z,1.43
2023-03-26T00:56:13.273Z,1.57
2023-03-26T00:58:40.892Z,1.37
2023-03-26T01:01:12.826Z,1.10
2023-03-26T01:03:40.839Z,1.20
2023-03-26T01:06:13.108Z,1.33
2023-03-26T01:08:44.233Z,1.13
2023-03-26T01:11:13.944Z,1.00
2023-03-26T01:13:44.325Z,1.00
2023-03-26T01:16:23.052Z,1.23
2023-03-26T01:18:52.101Z,1.77
2023-03-26T01:21:29.285Z,1.40
2023-03-26T01:24:00.170Z,1.30
2023-03-26T01:26:49.877Z,1.37
2023-03-26T01:29:22.207Z,1.00
2023-03-26T01:31:56.894Z,1.30
2023-03-26T01:34:33.096Z,1.40
2023-03-26T01:37:12.925Z,1.40
2023-03-26T01:39:48.726Z,1.70
2023-03-26T01:42:21.696Z,1.20
2023-03-26T01:44:55.014Z,1.00
2023-03-26T01:47:22.470Z,0.80
2023-03-26T01:49:49.793Z,1.30
2023-03-26T01:52:19.750Z,1.10
2023-03-26T01:54:48.222Z,1.00
2023-03-26T01:57:24.072Z,1.20
2023-03-26T02:00:10.741Z,1.07
2023-03-26T02:02:49.542Z,1.17
2023-03-26T02:05:24.021Z,1.20
2023-03-26T02:07:58.864Z,0.90
2023-03-26T02:10:29.234Z,0.87
2023-03-26T02:12:58.101Z,1.00
2023-03-26T02:15:25.634Z,1.23
2023-03-26T02:17:53.706Z,0.90
2023-03-26T02:20:21.649Z,0.93
2023-03-26T02:22:49.149Z,1.00
2023-03-26T02:25:18.643Z,0.80
2023-03-26T02:27:48.875Z,0.70
2023-03-26T02:30:18.266Z,1.20
2023-03-26T02:32:45.679Z,1.20
2023-03-26T02:35:13.391Z,0.80
2023-03-26T02:37:42.034Z,1.20
2023-03-26T02:40:11.011Z,1.00
2023-03-26T02:42:38.557Z,1.20
2023-03-26T02:45:07.672Z,1.10
2023-03-26T02:47:35.461Z,1.10
2023-03-26T02:50:04.031Z,0.90
2023-03-26T02:52:32.993Z,1.13
2023-03-26T02:55:00.258Z,1.30
2023-03-26T02:57:28.094Z,1.10
2023-03-26T02:59:55.374Z,1.47
2023-03-26T03:02:23.695Z,0.97
2023-03-26T03:04:51.433Z,1.20
2023-03-26T03:07:19.663Z,1.20
2023-03-26T03:09:49.923Z,5.60
2023-03-26T03:12:17.225Z,5.20
2023-03-26T03:14:44.487Z,1.40
2023-03-26T03:17:11.765Z,0.50
2023-03-26T03:19:39.762Z,1.07
2023-03-26T03:22:07.061Z,1.13
2023-03-26T03:24:34.335Z,1.53
2023-03-26T03:27:01.654Z,1.00
2023-03-26T03:29:28.996Z,1.30
2023-03-26T03:31:56.472Z,1.17
2023-03-26T03:34:24.850Z,1.03
2023-03-26T03:36:52.884Z,1.03
2023-03-26T03:39:20.438Z,0.80
2023-03-26T03:41:48.594Z,0.90
2023-03-26T03:44:16.195Z,1.07
2023-03-26T03:46:43.524Z,1.50
2023-03-26T03:49:10.897Z,1.10
2023-03-26T03:51:38.170Z,1.03
2023-03-26T03:54:07.803Z,1.30
2023-03-26T03:56:35.667Z,1.00
2023-03-26T03:59:03.015Z,1.20
2023-03-26T04:01:31.230Z,1.10
2023-03-26T04:03:58.966Z,1.00
2023-03-26T04:06:29.496Z,1.37
2023-03-26T04:08:56.954Z,1.50
2023-03-26T04:11:24.900Z,1.50
2023-03-26T04:13:52.200Z,1.60
2023-03-26T04:16:20.481Z,1.13
2023-03-26T04:18:48.017Z,1.23
2023-03-26T04:21:15.380Z,1.37
2023-03-26T04:23:42.677Z,2.00
2023-03-26T04:26:16.061Z,1.83
2023-03-26T04:28:48.706Z,1.30
2023-03-26T04:31:18.463Z,1.90
2023-03-26T04:33:47.042Z,1.93
2023-03-26T04:36:15.629Z,1.80
2023-03-26T04:38:45.251Z,2.40
2023-03-26T04:41:13.799Z,2.00
2023-03-26T04:43:46.431Z,2.30
2023-03-26T04:46:17.573Z,1.93
2023-03-26T04:48:45.005Z,2.13
2023-03-26T04:51:17.301Z,1.90
2023-03-26T04:53:47.438Z,2.00
2023-03-26T04:56:28.488Z,1.63
2023-03-26T04:59:01.954Z,1.70
2023-03-26T05:01:30.131Z,1.93
2023-03-26T05:03:58.210Z,2.27
2023-03-26T05:06:27.276Z,1.40
2023-03-26T05:08:54.797Z,2.10
2023-03-26T05:11:22.130Z,1.13
2023-03-26T05:13:49.429Z,2.33
2023-03-26T05:16:16.771Z,1.97
2023-03-26T05:18:45.817Z,1.83
2023-03-26T05:21:13.104Z,1.50
2023-03-26T05:23:40.398Z,2.37
2023-03-26T05:26:08.577Z,1.60
2023-03-26T05:28:36.045Z,1.60
2023-03-26T05:31:03.709Z,2.23
2023-03-26T05:33:31.164Z,2.00
2023-03-26T05:36:04.202Z,1.77
2023-03-26T05:38:32.151Z,1.40
2023-03-26T05:40:59.927Z,1.80
2023-03-26T05:43:27.586Z,1.77
2023-03-26T05:45:55.063Z,2.90
2023-03-26T05:48:22.512Z,3.10
2023-03-26T05:50:50.772Z,5.30
2023-03-26T05:53:19.838Z,4.60
2023-03-26T05:55:49.819Z,11.80
2023-03-26T05:58:17.526Z,4.53
2023-03-26T06:00:47.838Z,4.27
2023-03-26T06:03:15.813Z,2.70
2023-03-26T06:05:43.372Z,4.47
2023-03-26T06:08:10.921Z,4.00
2023-03-26T06:10:39.439Z,2.30
2023-03-26T06:13:06.728Z,2.57
2023-03-26T06:15:34.394Z,3.00
2023-03-26T06:18:01.766Z,2.07
2023-03-26T06:20:29.038Z,4.50
2023-03-26T06:22:56.495Z,1.90
2023-03-26T06:25:23.762Z,2.07
2023-03-26T06:27:51.736Z,3.73
2023-03-26T06:30:19.211Z,2.20
2023-03-26T06:32:46.546Z,2.83
2023-03-26T06:35:13.874Z,1.70
2023-03-26T06:37:41.739Z,1.77
2023-03-26T06:40:09.981Z,2.30
2023-03-26T06:43:08.132Z,1.73
2023-03-26T06:45:25.330Z,2.73
2023-03-26T06:47:52.702Z,2.10
2023-03-26T06:50:20.218Z,2.30
2023-03-26T06:52:47.563Z,2.97
2023-03-26T06:55:14.916Z,2.33
2023-03-26T06:57:44.578Z,1.97
2023-03-26T07:00:13.377Z,2.00
2023-03-26T07:02:41.491Z,1.73
2023-03-26T07:05:09.033Z,1.60
2023-03-26T07:07:37.371Z,2.30
2023-03-26T07:10:14.291Z,2.03
2023-03-26T07:12:42.139Z,2.83
2023-03-26T07:15:10.476Z,2.70
2023-03-26T07:17:38.003Z,2.70
2023-03-26T07:20:07.798Z,2.07
2023-03-26T07:22:36.172Z,3.73
2023-03-26T07:25:04.752Z,2.53
2023-03-26T07:27:46.327Z,2.30
2023-03-26T07:30:19.532Z,3.30
2023-03-26T07:32:52.799Z,3.40
2023-03-26T07:35:27.421Z,3.30
2023-03-26T07:38:12.128Z,2.73
2023-03-26T07:40:48.216Z,2.40
2023-03-26T07:43:28.812Z,1.83
2023-03-26T07:45:56.853Z,1.80
2023-03-26T07:48:28.839Z,2.87
2023-03-26T07:50:59.367Z,1.67
2023-03-26T07:53:27.046Z,2.23
2023-03-26T07:56:00.970Z,3.40
2023-03-26T07:58:47.844Z,2.60
2023-03-26T08:01:20.370Z,2.30
2023-03-26T08:04:24.030Z,2.47
2023-03-26T08:07:00.762Z,2.30
2023-03-26T08:09:34.298Z,2.60
2023-03-26T08:12:10.468Z,3.07
2023-03-26T08:14:48.410Z,2.03
2023-03-26T08:17:19.355Z,2.40
2023-03-26T08:20:05.100Z,4.10
2023-03-26T08:22:38.203Z,2.87
2023-03-26T08:25:17.916Z,4.10
2023-03-26T08:27:51.756Z,3.23
2023-03-26T08:30:21.587Z,4.90
2023-03-26T08:32:54.262Z,6.33
2023-03-26T08:35:21.794Z,3.50
2023-03-26T08:37:51.120Z,3.00
2023-03-26T08:40:38.094Z,4.43
2023-03-26T08:43:28.401Z,3.80
2023-03-26T08:46:20.498Z,2.30
2023-03-26T08:49:20.611Z,3.27
2023-03-26T08:52:37.446Z,2.30
2023-03-26T08:55:40.004Z,2.20
2023-03-26T08:58:45.909Z,2.37
2023-03-26T09:01:53.404Z,2.17
2023-03-26T09:04:39.786Z,3.47
2023-03-26T09:07:39.031Z,3.00
2023-03-26T09:10:41.653Z,2.47
2023-03-26T09:13:50.412Z,2.70
2023-03-26T09:16:54.628Z,2.10
2023-03-26T09:20:06.341Z,2.93
2023-03-26T09:23:05.571Z,2.40
2023-03-26T09:26:12.054Z,2.50
2023-03-26T09:29:18.112Z,4.10
2023-03-26T09:32:22.185Z,7.60
2023-03-26T09:35:13.609Z,9.30
2023-03-26T09:37:59.172Z,33.30
2023-03-26T09:40:36.235Z,94.60
2023-03-26T09:43:23.433Z,31.80
2023-03-26T09:46:05.324Z,16.47
2023-03-26T09:49:01.602Z,6.53
2023-03-26T09:51:52.778Z,6.70
2023-03-26T09:54:47.798Z,7.10
2023-03-26T09:57:25.455Z,4.63
2023-03-26T10:00:09.337Z,4.57
2023-03-26T10:05:34.910Z,4.90
2023-03-26T10:08:26.920Z,3.07
2023-03-26T10:10:57.139Z,2.50
2023-03-26T10:13:35.664Z,2.03
2023-03-26T10:16:16.794Z,2.20
2023-03-26T10:18:55.739Z,2.77
2023-03-26T10:21:35.365Z,2.70
2023-03-26T10:24:20.420Z,2.00
2023-03-26T10:27:10.786Z,1.97
2023-03-26T10:29:59.647Z,1.80
2023-03-26T10:32:34.674Z,2.13
2023-03-26T10:35:20.222Z,2.83
2023-03-26T10:38:00.920Z,3.33
2023-03-26T10:40:34.517Z,9.33
2023-03-26T10:43:40.167Z,5.83
2023-03-26T10:46:33.951Z,1.83
2023-03-26T10:49:27.892Z,2.10
2023-03-26T10:51:58.195Z,2.13
2023-03-26T10:54:37.833Z,1.80
2023-03-26T10:57:11.515Z,1.90
2023-03-26T10:59:39.110Z,1.83
2023-03-26T11:02:29.432Z,2.30
2023-03-26T11:05:18.049Z,3.60
2023-03-26T11:07:51.142Z,2.30
2023-03-26T11:10:29.072Z,2.30
2023-03-26T11:13:04.981Z,1.90
2023-03-26T11:15:37.401Z,2.00
2023-03-26T11:18:13.190Z,2.53
2023-03-26T11:20:46.151Z,2.00
2023-03-26T11:23:34.034Z,2.33
2023-03-26T11:26:13.702Z,2.17
2023-03-26T11:29:32.660Z,2.40
2023-03-26T11:32:01.115Z,2.13
2023-03-26T11:34:31.798Z,4.03
2023-03-26T11:37:01.433Z,3.00
2023-03-26T11:39:33.682Z,4.40
2023-03-26T11:42:07.139Z,11.17
2023-03-26T11:44:37.919Z,10.07
2023-03-26T11:47:09.858Z,11.03
2023-03-26T11:49:38.170Z,6.23
2023-03-26T11:52:06.919Z,3.30
2023-03-26T11:54:34.203Z,6.83
2023-03-26T11:57:07.287Z,6.90
2023-03-26T11:59:49.020Z,4.90
2023-03-26T12:02:24.098Z,4.00
2023-03-26T12:04:54.609Z,2.57
2023-03-26T12:07:31.087Z,2.80
2023-03-26T12:10:18.368Z,4.20
2023-03-26T12:12:48.540Z,4.30
2023-03-26T12:15:18.348Z,3.40
2023-03-26T12:17:47.028Z,2.03
2023-03-26T12:20:35.376Z,1.60
2023-03-26T12:23:04.459Z,2.50
2023-03-26T12:25:38.316Z,2.30
2023-03-26T12:28:20.794Z,3.20
2023-03-26T12:31:00.129Z,4.63
2023-03-26T12:33:29.671Z,3.00
2023-03-26T12:35:59.743Z,2.20
2023-03-26T12:38:33.196Z,2.30
2023-03-26T12:41:07.274Z,2.70
2023-03-26T12:44:56.530Z,3.13
2023-03-26T12:47:54.377Z,2.73
2023-03-26T12:49:18.787Z,2.70
2023-03-26T12:51:51.122Z,2.10
2023-03-26T12:54:36.811Z,2.27
2023-03-26T12:57:20.172Z,2.47
2023-03-26T13:00:20.968Z,2.13
2023-03-26T13:03:18.765Z,2.60
2023-03-26T13:05:56.302Z,2.80
2023-03-26T13:08:53.797Z,2.60
2023-03-26T13:11:29.283Z,2.03
2023-03-26T13:14:16.760Z,2.53
2023-03-26T13:16:56.918Z,2.50
2023-03-26T13:19:30.325Z,2.97
2023-03-26T13:22:09.482Z,5.83
2023-03-26T13:24:49.389Z,2.50
2023-03-26T13:27:34.987Z,2.20
2023-03-26T13:30:11.292Z,2.60
2023-03-26T13:32:56.612Z,2.27
2023-03-26T13:35:31.037Z,3.10
2023-03-26T13:38:06.314Z,2.87
2023-03-26T13:40:47.579Z,3.80
2023-03-26T13:43:28.846Z,5.80
2023-03-26T13:46:02.906Z,4.60
2023-03-26T13:48:37.743Z,3.40
2023-03-26T13:51:12.205Z,6.90
2023-03-26T13:53:44.518Z,9.30
2023-03-26T13:56:16.862Z,7.23
2023-03-26T13:58:48.308Z,3.50
2023-03-26T14:01:19.164Z,3.47
2023-03-26T14:03:55.612Z,3.10
2023-03-26T14:06:35.978Z,3.53
2023-03-26T14:09:10.832Z,4.73
2023-03-26T14:11:54.813Z,3.70
2023-03-26T14:14:32.291Z,3.10
2023-03-26T14:17:06.204Z,2.27
2023-03-26T14:20:11.861Z,2.50
2023-03-26T14:22:55.522Z,3.83
2023-03-26T14:25:35.322Z,2.50
2023-03-26T14:28:12.729Z,2.50
2023-03-26T14:31:09.071Z,1.97
2023-03-26T14:34:22.882Z,3.50
2023-03-26T14:37:27.411Z,2.17
2023-03-26T14:40:22.094Z,2.83
2023-03-26T14:42:57.761Z,3.87
2023-03-26T14:46:00.435Z,2.87
2023-03-26T14:48:52.721Z,1.90
2023-03-26T14:51:40.499Z,2.60
2023-03-26T14:54:12.605Z,2.70
2023-03-26T14:56:53.169Z,1.40
2023-03-26T14:59:57.410Z,1.50
2023-03-26T15:03:08.919Z,1.90
2023-03-26T15:05:58.793Z,1.33
2023-03-26T15:09:01.883Z,1.43
2023-03-26T15:11:39.759Z,1.67
2023-03-26T15:14:40.563Z,2.37
2023-03-26T15:17:45.348Z,5.70
2023-03-26T15:20:55.213Z,7.80
2023-03-26T15:23:55.087Z,3.70
2023-03-26T15:27:11.018Z,3.00
2023-03-26T15:30:16.418Z,5.50
2023-03-26T15:33:07.694Z,8.10
2023-03-26T15:36:08.473Z,2.30
2023-03-26T15:39:02.408Z,5.80
2023-03-26T15:41:39.255Z,5.97
2023-03-26T15:44:29.141Z,4.50
2023-03-26T15:47:19.747Z,3.50
2023-03-26T15:49:55.850Z,4.20
2023-03-26T15:52:28.989Z,4.57
2023-03-26T15:55:09.019Z,5.20
2023-03-26T15:57:43.471Z,5.67
2023-03-26T16:00:22.419Z,5.13
2023-03-26T16:03:19.498Z,7.10
2023-03-26T16:06:14.299Z,6.93
2023-03-26T16:08:55.991Z,4.67
2023-03-26T16:11:50.441Z,2.90
2023-03-26T16:14:50.176Z,2.67
2023-03-26T16:17:20.194Z,2.40
2023-03-26T16:19:51.670Z,1.77
2023-03-26T16:22:42.632Z,2.53
2023-03-26T16:25:27.385Z,2.17
2023-03-26T16:28:26.995Z,2.10
2023-03-26T16:31:37.637Z,1.97
2023-03-26T16:34:30.687Z,2.60
2023-03-26T16:37:00.330Z,2.50
2023-03-26T16:39:40.139Z,2.90
2023-03-26T16:42:33.364Z,2.37
2023-03-26T16:45:18.967Z,2.30
2023-03-26T16:48:00.250Z,3.20
2023-03-26T16:50:40.580Z,3.30
2023-03-26T16:53:23.556Z,3.10
2023-03-26T16:55:56.181Z,3.27
2023-03-26T16:58:33.695Z,4.57
2023-03-26T17:01:10.999Z,4.20
2023-03-26T17:03:53.821Z,6.00
2023-03-26T17:06:46.129Z,5.60
2023-03-26T17:09:22.834Z,2.97
2023-03-26T17:12:00.216Z,2.40
2023-03-26T17:14:37.671Z,2.60
2023-03-26T17:17:23.139Z,4.13
2023-03-26T17:19:57.184Z,4.30
2023-03-26T17:22:36.893Z,4.70
2023-03-26T17:25:18.556Z,4.40
2023-03-26T17:27:50.604Z,3.70
2023-03-26T17:30:41.336Z,1.80
2023-03-26T17:33:20.816Z,1.87
2023-03-26T17:35:49.882Z,1.53
2023-03-26T17:38:56.972Z,1.80
2023-03-26T17:41:55.898Z,1.93
2023-03-26T17:44:43.280Z,4.83
2023-03-26T17:47:32.231Z,2.37
2023-03-26T17:50:04.315Z,5.00
2023-03-26T17:52:53.574Z,9.90
2023-03-26T17:55:25.208Z,13.10
2023-03-26T17:57:56.307Z,13.13
2023-03-26T18:00:27.599Z,9.37
2023-03-26T18:02:58.588Z,7.50
2023-03-26T18:05:28.975Z,6.10
2023-03-26T18:08:31.737Z,6.73
2023-03-26T18:11:35.111Z,6.40
2023-03-26T18:14:32.734Z,6.77
2023-03-26T18:17:01.101Z,2.20
2023-03-26T18:19:29.007Z,1.80
2023-03-26T18:21:58.843Z,1.23
2023-03-26T18:24:29.321Z,2.60
2023-03-26T18:27:02.002Z,1.50
2023-03-26T18:29:31.171Z,3.10
2023-03-26T18:32:00.389Z,5.90
2023-03-26T18:34:30.847Z,4.53
2023-03-26T18:37:15.702Z,5.50
2023-03-26T18:39:55.488Z,4.20
2023-03-26T18:42:25.433Z,3.20
2023-03-26T18:44:59.889Z,3.57
2023-03-26T18:47:31.045Z,4.43
2023-03-26T18:49:59.393Z,3.73
2023-03-26T18:52:28.994Z,3.60
2023-03-26T18:54:58.717Z,5.90
2023-03-26T18:57:28.830Z,4.70
2023-03-26T19:00:08.171Z,5.93
2023-03-26T19:02:35.995Z,4.30
2023-03-26T19:05:03.940Z,3.20
2023-03-26T19:07:31.470Z,3.80
2023-03-26T19:10:00.907Z,3.63
2023-03-26T19:12:31.764Z,1.90
2023-03-26T19:15:04.656Z,2.20
2023-03-26T19:17:38.869Z,4.40
2023-03-26T19:20:13.114Z,8.20
2023-03-26T19:22:41.700Z,3.60
2023-03-26T19:25:18.311Z,2.37
2023-03-26T19:27:46.361Z,3.33
2023-03-26T19:30:29.074Z,2.03
2023-03-26T19:33:13.552Z,2.00
2023-03-26T19:35:42.777Z,1.80
2023-03-26T19:38:25.325Z,2.00
2023-03-26T19:40:54.701Z,1.70
2023-03-26T19:43:24.172Z,2.63
2023-03-26T19:45:59.989Z,5.10
2023-03-26T19:48:46.176Z,3.50
2023-03-26T19:51:20.680Z,3.87
2023-03-26T19:53:54.384Z,2.37
2023-03-26T19:56:22.297Z,2.17
2023-03-26T19:58:50.607Z,2.00
2023-03-26T20:01:20.247Z,2.50
2023-03-26T20:03:49.981Z,1.80
2023-03-26T20:06:18.679Z,2.03
2023-03-26T20:08:46.421Z,3.00
2023-03-26T20:11:16.369Z,1.50
2023-03-26T20:13:43.629Z,1.70
2023-03-26T20:16:18.399Z,1.30
2023-03-26T20:18:46.972Z,1.37
2023-03-26T20:21:14.643Z,1.47
2023-03-26T20:23:43.196Z,1.63
2023-03-26T20:26:13.148Z,1.83
2023-03-26T20:28:47.915Z,2.07
2023-03-26T20:31:18.861Z,2.13
2023-03-26T20:33:47.272Z,2.40
2023-03-26T20:36:34.077Z,2.23
2023-03-26T20:39:05.095Z,2.40
2023-03-26T20:41:32.955Z,2.00
2023-03-26T20:44:00.290Z,2.97
2023-03-26T20:46:31.221Z,5.17
2023-03-26T20:48:59.139Z,4.40
2023-03-26T20:51:27.272Z,3.43
2023-03-26T20:53:54.578Z,3.47
2023-03-26T20:56:22.018Z,3.53
2023-03-26T20:58:52.640Z,2.87
2023-03-26T21:01:25.005Z,2.50
2023-03-26T21:03:53.017Z,2.60
2023-03-26T21:06:20.306Z,2.10
2023-03-26T21:08:48.090Z,1.90
2023-03-26T21:11:26.491Z,2.50
2023-03-26T21:14:01.190Z,2.27
2023-03-26T21:16:29.067Z,1.97
2023-03-26T21:18:58.272Z,1.57
2023-03-26T21:21:41.159Z,1.40
2023-03-26T21:24:16.430Z,1.57
2023-03-26T21:26:49.801Z,1.80
2023-03-26T21:29:17.588Z,1.70
2023-03-26T21:31:46.041Z,2.03
2023-03-26T21:34:16.677Z,1.83
2023-03-26T21:36:44.550Z,2.00
2023-03-26T21:39:12.385Z,2.10
2023-03-26T21:41:44.564Z,1.80
2023-03-26T21:44:13.544Z,1.43
2023-03-26T21:46:42.460Z,1.63
2023-03-26T21:49:10.693Z,2.13
2023-03-26T21:51:39.564Z,1.60
2023-03-26T21:54:21.210Z,2.03
2023-03-26T21:56:56.578Z,1.77
2023-03-26T21:59:31.870Z,2.23
2023-03-26T22:02:04.064Z,3.10
2023-03-26T22:04:38.372Z,2.40
2023-03-26T22:07:11.221Z,2.40
2023-03-26T22:09:39.066Z,2.70
2023-03-26T22:12:06.872Z,2.63
2023-03-26T22:14:34.699Z,2.47
2023-03-26T22:17:02.493Z,1.90
2023-03-26T22:19:30.448Z,2.30
2023-03-26T22:21:59.325Z,1.70
2023-03-26T22:24:27.414Z,2.13
2023-03-26T22:26:55.337Z,1.87
2023-03-26T22:29:22.607Z,2.00
2023-03-26T22:31:50.468Z,2.40
2023-03-26T22:34:18.927Z,6.73
2023-03-26T22:36:46.596Z,9.57
2023-03-26T22:39:13.810Z,5.00
2023-03-26T22:41:41.800Z,4.30
2023-03-26T22:44:19.832Z,4.20
2023-03-26T22:46:50.623Z,5.17
2023-03-26T22:49:18.155Z,3.30
2023-03-26T22:51:46.035Z,4.00
2023-03-26T22:54:13.808Z,2.40
2023-03-26T22:56:42.890Z,1.70
2023-03-26T22:59:10.502Z,1.90
2023-03-26T23:01:37.897Z,2.80
2023-03-26T23:04:05.488Z,1.80
2023-03-26T23:06:32.860Z,2.00
2023-03-26T23:09:00.556Z,1.53
2023-03-26T23:11:29.880Z,1.63
2023-03-26T23:13:57.987Z,1.60
2023-03-26T23:16:25.807Z,1.80
2023-03-26T23:18:53.222Z,1.90
2023-03-26T23:21:21.792Z,3.13
2023-03-26T23:23:51.380Z,6.73
2023-03-26T23:26:18.741Z,4.57
2023-03-26T23:28:46.450Z,3.00
2023-03-26T23:31:14.599Z,3.60
2023-03-26T23:33:45.122Z,3.80
2023-03-26T23:36:13.851Z,2.30
2023-03-26T23:38:44.018Z,2.20
2023-03-26T23:41:14.182Z,2.80
2023-03-26T23:43:54.440Z,2.87
2023-03-26T23:46:24.598Z,2.67
2023-03-26T23:48:52.304Z,2.10
2023-03-26T23:51:20.521Z,2.80
2023-03-26T23:53:48.391Z,3.00
2023-03-26T23:56:15.838Z,2.90
2023-03-26T23:58:43.375Z,2.40
